A- A+ FrançaisEnglishEspañol中国

最近的 KIXA Halifax-Northampton RegionalLFLC Clermont-Ferrand-Aulnat SCNT Puerto NatalesSKGO CartagoLFBT Tarbes-Lourdes-PyrénéesKASE Aspen Pitkin Co Sardy

飞行员的航空天气,使用METAR(气象机场报告)进行的飞行准备和TAF(终端机场预报:针对以下情况的短期天气预报)航空)。 以及其他资源,例如VAC(目视进近图)和NOTAM(通知飞行员)以进行预试飞行.

METAR, TAF, VAC, NOTAM Hettinger Mun机场 (美国) / OACI KHEI

它位于附近 Hettinger, Hettinger 在 2.1 km, Haynes 在 15 km, Lemmon 在 39 km, Mott 在 47 km, Bison 在 57 km, Bowman 在 60 km, Meadow 在 64 km, Amidon 在 73 km, Buffalo 在 84 km, Carson 在 95 km,

机场的高度为 Hettinger Mun机场的

824 m = 2703 ft

附近的机场Hettinger Mun机场的

跑道 Hettinger Mun机场的

目前的天气 Hettinger Mun机场的 - KHEI

ciel dégagé
9°C

Vent 28 km/h

可提供5天天气预报 Hettinger 在 2.1 km, Haynes 在 15 km, Lemmon 在 39 km, Mott 在 47 km, Bison 在 57 km, Bowman 在 60 km, Meadow 在 64 km, Amidon 在 73 km, Buffalo 在 84 km, Carson 在 95 km,

METAR Hettinger Mun机场的 - KHEI

KHEI 291653Z AUTO 10015KT 3SM -RA BR OVC004 09/09 A2976 RMK AO2 RAB1554E03B43 SLP084 P0000 T00940089

Hettinger Mun机场METAR解码 (美国)

KHEI机场发行的METAR日期2019年09月29日至16:53 GMT. 这是一个自动生成的METAR, 警告:此METAR已过期, 已于 309 天 12 小时 9 分钟.

可见度为4.8 km = 3 sm.

温度为9°C = 48 °F 露点为9°C = 48 °F 。 这相当于100%的相对湿度。.

QNH是1008 hPa = 29.77 inHg

的风15 kt = 28 km/h, 风向为100°.

云:多云400 ft = 120 m.

光雨 薄雾

备注 AO2 雨B1554E03B43 SLP084 P0000 T00940089

TAF Hettinger Mun机场的 - KHEI

没有TAF

Hettinger Mun机场的NOTAM

提供的NOTAM不能保证其时事性。 在将其用于飞行准备或在飞行期间使用之前,飞行员是唯一负责验证其有效性的人员。

没有通知

数据源